Time;durP1;ratioP1;P1;durP2;ratioP2;P2;SDS_P1;SDS_P2;PMS_P1;PMS_P2;Temp;Humidity;BMP_temperature;BMP_pressure;BME280_temperature;BME280_humidity;BME280_pressure;Samples;Min_cycle;Max_cycle;Signal;HPM_P1;HPM_P2
2022/10/23 00:00:45;;;;;;;2.5;1.7;;;;;;;9.86;100;940.3077;;;;
2022/10/23 00:03:10;;;;;;;3.3;1.5;;;;;;;9.73;99.83203;940.2879;;;;
2022/10/23 00:05:35;;;;;;;2.3;1.9;;;;;;;9.64;100;940.3596;;;;
2022/10/23 00:08:01;;;;;;;2.8;2;;;;;;;9.69;100;940.3334;;;;
2022/10/23 00:10:30;;;;;;;3.4;2.2;;;;;;;9.67;100;940.2703;;;;
2022/10/23 00:12:56;;;;;;;2.5;1.8;;;;;;;9.79;100;940.2188;;;;
2022/10/23 00:15:29;;;;;;;2.6;1.8;;;;;;;9.67;100;940.1932;;;;
2022/10/23 00:17:54;;;;;;;3;1.7;;;;;;;9.63;100;940.1614;;;;
2022/10/23 00:20:22;;;;;;;2.9;2;;;;;;;9.44;100;940.2377;;;;
2022/10/23 00:22:47;;;;;;;2;1.7;;;;;;;9.33;100;940.2172;;;;
2022/10/23 00:25:17;;;;;;;2.5;1.9;;;;;;;9.43;100;940.2255;;;;
2022/10/23 00:27:42;;;;;;;2.9;2.2;;;;;;;9.38;100;940.2769;;;;
2022/10/23 00:30:15;;;;;;;2.7;2.2;;;;;;;9.47;100;940.192;;;;
2022/10/23 00:32:43;;;;;;;1.9;1.6;;;;;;;9.5;100;940.1766;;;;
2022/10/23 00:35:08;;;;;;;2;1.7;;;;;;;9.56;100;940.1777;;;;
2022/10/23 00:37:34;;;;;;;4.4;1.7;;;;;;;9.5;100;940.1909;;;;
2022/10/23 00:40:02;;;;;;;2.7;1.5;;;;;;;9.45;100;940.2148;;;;
2022/10/23 00:42:27;;;;;;;2.7;1.4;;;;;;;9.59;100;940.2798;;;;
2022/10/23 00:44:54;;;;;;;1.9;1.5;;;;;;;9.34;100;940.3033;;;;
2022/10/23 00:47:20;;;;;;;2.3;1.6;;;;;;;9.32;100;940.302;;;;
2022/10/23 00:49:45;;;;;;;3.5;1.7;;;;;;;9.3;100;940.3025;;;;
2022/10/23 00:52:13;;;;;;;2.9;2;;;;;;;9.35;100;940.2589;;;;
2022/10/23 00:54:38;;;;;;;2.2;1.3;;;;;;;9.31;100;940.3059;;;;
2022/10/23 00:57:03;;;;;;;2.8;1.6;;;;;;;9.48;99.91016;940.2247;;;;
2022/10/23 00:59:28;;;;;;;2.1;1.5;;;;;;;9.28;100;940.2307;;;;
2022/10/23 01:01:54;;;;;;;1.6;1.2;;;;;;;9.05;100;940.277;;;;
2022/10/23 01:04:19;;;;;;;1.3;1.2;;;;;;;9.19;100;940.1557;;;;
2022/10/23 01:06:45;;;;;;;1.6;1.5;;;;;;;9.32;100;940.0946;;;;
2022/10/23 01:09:12;;;;;;;2.2;1.5;;;;;;;9.31;100;940.1437;;;;
2022/10/23 01:11:37;;;;;;;3;1.6;;;;;;;9.39;100;940.1777;;;;
2022/10/23 01:14:02;;;;;;;5.3;2.2;;;;;;;9.3;100;940.1722;;;;
2022/10/23 01:16:27;;;;;;;2.8;1.9;;;;;;;9.26;100;940.1644;;;;
2022/10/23 01:18:52;;;;;;;3.6;2;;;;;;;9.23;100;940.0781;;;;
2022/10/23 01:21:17;;;;;;;1.9;1.5;;;;;;;9.18;100;940.092;;;;
2022/10/23 01:23:42;;;;;;;2.5;1.3;;;;;;;9.17;100;940.0489;;;;
2022/10/23 01:26:08;;;;;;;2.6;1.4;;;;;;;9.16;100;940.0353;;;;
2022/10/23 01:28:37;;;;;;;1.7;1.3;;;;;;;9.14;100;939.9705;;;;
2022/10/23 01:31:02;;;;;;;1.4;1.2;;;;;;;9.16;100;939.8517;;;;
2022/10/23 01:33:28;;;;;;;1.2;1.1;;;;;;;9.13;100;939.8409;;;;
2022/10/23 01:35:57;;;;;;;1.3;1.2;;;;;;;9.07;100;939.889;;;;
2022/10/23 01:38:22;;;;;;;2.5;1.6;;;;;;;9.1;100;940.0349;;;;
2022/10/23 01:40:51;;;;;;;2.2;1.6;;;;;;;9.06;100;940.0065;;;;
2022/10/23 01:43:17;;;;;;;1.4;1.3;;;;;;;9.14;100;940.0237;;;;
2022/10/23 01:45:41;;;;;;;2;1.7;;;;;;;9.2;99.25586;940.0486;;;;
2022/10/23 01:48:06;;;;;;;1.3;1.2;;;;;;;9.09;99.46973;939.9411;;;;
2022/10/23 01:50:31;;;;;;;1.9;1.1;;;;;;;8.98;100;939.7775;;;;
2022/10/23 01:52:57;;;;;;;1.1;1;;;;;;;9.04;100;939.8281;;;;
2022/10/23 01:55:24;;;;;;;1.6;1.3;;;;;;;9.03;100;939.8114;;;;
2022/10/23 01:57:49;;;;;;;2.7;1.4;;;;;;;9.08;100;939.7869;;;;
2022/10/23 02:00:19;;;;;;;1.3;1.2;;;;;;;9.15;99.68652;939.7921;;;;
2022/10/23 02:02:44;;;;;;;1.3;1.2;;;;;;;9.05;98.99023;939.6678;;;;
2022/10/23 02:05:09;;;;;;;1.2;1.1;;;;;;;9;98.90234;939.6494;;;;
2022/10/23 02:07:34;;;;;;;1.6;1;;;;;;;8.91;99.2002;939.6795;;;;
2022/10/23 02:10:05;;;;;;;1.2;1.1;;;;;;;8.86;99.66406;939.6063;;;;
2022/10/23 02:12:30;;;;;;;1.5;0.9;;;;;;;8.68;100;939.6163;;;;
2022/10/23 02:14:55;;;;;;;1.3;1;;;;;;;8.73;100;939.5449;;;;
2022/10/23 02:17:21;;;;;;;2;1.3;;;;;;;8.78;100;939.5831;;;;
2022/10/23 02:19:46;;;;;;;2.9;1.4;;;;;;;8.86;100;939.6261;;;;
2022/10/23 02:22:11;;;;;;;1;1;;;;;;;8.87;100;939.5859;;;;
2022/10/23 02:24:36;;;;;;;1.7;1.2;;;;;;;8.85;100;939.6356;;;;
2022/10/23 02:27:01;;;;;;;4.1;2.8;;;;;;;8.88;100;939.6097;;;;
2022/10/23 02:29:27;;;;;;;10.4;5.9;;;;;;;8.83;100;939.4612;;;;
2022/10/23 02:31:52;;;;;;;23.7;10.9;;;;;;;8.72;100;939.559;;;;
2022/10/23 02:34:21;;;;;;;40.7;19.5;;;;;;;8.69;100;939.634;;;;
2022/10/23 02:36:46;;;;;;;13.9;7.3;;;;;;;8.51;100;939.5366;;;;
2022/10/23 02:39:13;;;;;;;6.4;4;;;;;;;8.51;100;939.6033;;;;
2022/10/23 02:41:40;;;;;;;6.2;2.5;;;;;;;8.63;100;939.5472;;;;
2022/10/23 02:44:05;;;;;;;3.1;1.8;;;;;;;8.63;100;939.6075;;;;
2022/10/23 02:46:30;;;;;;;2.9;1.5;;;;;;;8.67;100;939.5597;;;;
2022/10/23 02:48:55;;;;;;;1.4;1.1;;;;;;;8.58;100;939.4656;;;;
2022/10/23 02:51:20;;;;;;;1.1;1;;;;;;;8.57;100;939.4394;;;;
2022/10/23 02:53:46;;;;;;;1.3;0.9;;;;;;;8.56;100;939.4653;;;;
2022/10/23 02:56:11;;;;;;;1.7;0.8;;;;;;;8.64;100;939.4281;;;;
2022/10/23 02:58:36;;;;;;;2.2;1.1;;;;;;;8.65;100;939.4592;;;;
2022/10/23 03:01:01;;;;;;;1;0.9;;;;;;;8.76;100;939.4247;;;;
2022/10/23 03:03:27;;;;;;;1.1;1;;;;;;;8.72;100;939.3152;;;;
2022/10/23 03:05:51;;;;;;;2.4;1.2;;;;;;;8.75;100;939.3467;;;;
2022/10/23 03:08:17;;;;;;;1.9;1.1;;;;;;;8.73;100;939.2536;;;;
2022/10/23 03:10:43;;;;;;;1;0.9;;;;;;;8.72;100;939.3019;;;;
2022/10/23 03:13:10;;;;;;;1;0.9;;;;;;;8.58;100;939.2816;;;;
2022/10/23 03:15:38;;;;;;;1.3;1;;;;;;;8.53;100;939.2464;;;;
2022/10/23 03:18:09;;;;;;;1;0.9;;;;;;;8.63;100;939.2963;;;;
2022/10/23 03:20:34;;;;;;;1.6;1.1;;;;;;;8.62;100;939.3222;;;;
2022/10/23 03:23:03;;;;;;;1.2;1.1;;;;;;;8.56;100;939.3812;;;;
2022/10/23 03:25:28;;;;;;;1.3;0.9;;;;;;;8.47;100;939.3755;;;;
2022/10/23 03:27:59;;;;;;;1.2;1;;;;;;;8.65;100;939.3228;;;;
2022/10/23 03:30:27;;;;;;;1;0.9;;;;;;;8.56;100;939.3287;;;;
2022/10/23 03:32:52;;;;;;;2.3;0.9;;;;;;;8.54;100;939.3434;;;;
2022/10/23 03:35:17;;;;;;;2.4;1;;;;;;;8.62;100;939.3611;;;;
2022/10/23 03:37:48;;;;;;;1.2;1.1;;;;;;;8.71;100;939.3356;;;;
2022/10/23 03:40:18;;;;;;;1.3;0.9;;;;;;;8.75;100;939.35;;;;
2022/10/23 03:42:43;;;;;;;1.9;1.2;;;;;;;8.76;100;939.3;;;;
2022/10/23 03:45:14;;;;;;;1.6;1;;;;;;;8.75;100;939.3087;;;;
2022/10/23 03:47:44;;;;;;;1.4;1.1;;;;;;;8.76;100;939.2589;;;;
2022/10/23 03:50:12;;;;;;;3.6;2;;;;;;;8.78;100;939.2139;;;;
2022/10/23 03:52:36;;;;;;;2.7;1.8;;;;;;;8.83;100;939.2628;;;;
2022/10/23 03:55:02;;;;;;;2.7;2.5;;;;;;;8.95;100;939.2545;;;;
2022/10/23 03:57:28;;;;;;;2.4;2.1;;;;;;;8.89;100;939.3265;;;;
2022/10/23 03:59:55;;;;;;;5;2.3;;;;;;;8.82;100;939.3222;;;;
2022/10/23 04:02:38;;;;;;;2.3;1.6;;;;;;;8.76;100;939.2089;;;;
2022/10/23 04:05:12;;;;;;;1.8;1.3;;;;;;;8.62;100;939.192;;;;
2022/10/23 04:07:37;;;;;;;1.5;1.1;;;;;;;8.65;100;939.2506;;;;
2022/10/23 04:10:05;;;;;;;1;1;;;;;;;8.64;100;939.2567;;;;
2022/10/23 04:12:30;;;;;;;2.3;1.3;;;;;;;8.66;100;939.3055;;;;
2022/10/23 04:14:56;;;;;;;1.1;1;;;;;;;8.68;100;939.2836;;;;
2022/10/23 04:17:21;;;;;;;1;0.9;;;;;;;8.58;100;939.2371;;;;
2022/10/23 04:19:48;;;;;;;1.5;1.4;;;;;;;8.65;100;939.2768;;;;
2022/10/23 04:22:13;;;;;;;1.1;1.1;;;;;;;8.73;100;939.2249;;;;
2022/10/23 04:24:44;;;;;;;1.4;1.3;;;;;;;8.68;100;939.1766;;;;
2022/10/23 04:27:07;;;;;;;2.5;1.5;;;;;;;8.66;100;939.2271;;;;
2022/10/23 04:29:32;;;;;;;1;1;;;;;;;8.71;100;939.1953;;;;
2022/10/23 04:31:58;;;;;;;2.1;1;;;;;;;8.72;100;939.1502;;;;
2022/10/23 04:34:23;;;;;;;0.9;0.9;;;;;;;8.84;100;939.0613;;;;
2022/10/23 04:41:59;;;;;;;0.9;0.9;;;;;;;9.42;97.87988;938.9872;;;;
2022/10/23 04:44:28;;;;;;;2;0.8;;;;;;;9.54;96.25684;939.1351;;;;
2022/10/23 04:46:56;;;;;;;2.9;0.9;;;;;;;9.46;96.30664;939.1619;;;;
2022/10/23 04:49:21;;;;;;;1.9;0.8;;;;;;;9.21;97.96973;939.1272;;;;
2022/10/23 04:51:47;;;;;;;2.7;1.8;;;;;;;9.11;98.60645;939.0906;;;;
2022/10/23 04:54:13;;;;;;;3.1;2.2;;;;;;;9.06;98.38965;939.0684;;;;
2022/10/23 04:56:42;;;;;;;3;1.9;;;;;;;9.07;98.41699;939.0948;;;;
2022/10/23 04:59:07;;;;;;;2.9;2.4;;;;;;;8.85;99.70898;939.0455;;;;
2022/10/23 05:01:36;;;;;;;2.2;1.7;;;;;;;8.89;100;939.0255;;;;
2022/10/23 05:04:03;;;;;;;2.9;1.8;;;;;;;8.9;99.79883;938.9757;;;;
2022/10/23 05:06:35;;;;;;;2.7;2;;;;;;;8.91;99.3125;938.879;;;;
2022/10/23 05:09:01;;;;;;;2.5;2.1;;;;;;;8.75;99.46777;939.0467;;;;
2022/10/23 05:11:26;;;;;;;3;2.3;;;;;;;8.62;100;938.9596;;;;
2022/10/23 05:13:51;;;;;;;3.8;1.9;;;;;;;8.69;100;938.9536;;;;
2022/10/23 05:16:21;;;;;;;5.6;2.5;;;;;;;8.69;100;938.9235;;;;
2022/10/23 05:18:46;;;;;;;2.8;2.3;;;;;;;8.71;100;938.9745;;;;
2022/10/23 05:21:11;;;;;;;3.6;2.2;;;;;;;8.84;99.85254;938.9453;;;;
2022/10/23 05:23:41;;;;;;;2.4;2;;;;;;;8.9;98.91211;938.8962;;;;
2022/10/23 05:26:06;;;;;;;2.5;1.8;;;;;;;8.82;98.88184;938.837;;;;
2022/10/23 05:28:34;;;;;;;1.6;1.5;;;;;;;8.65;100;938.8744;;;;
2022/10/23 05:30:59;;;;;;;2.7;1.9;;;;;;;8.72;99.73633;938.7882;;;;
2022/10/23 05:33:25;;;;;;;5;1.3;;;;;;;8.68;99.71289;938.8289;;;;
2022/10/23 05:35:50;;;;;;;1.4;1.3;;;;;;;8.83;99.03223;938.7792;;;;
2022/10/23 05:38:20;;;;;;;1.5;1.2;;;;;;;8.68;99.81543;938.8478;;;;
2022/10/23 05:40:53;;;;;;;3.3;2.2;;;;;;;8.47;100;938.7328;;;;
2022/10/23 05:43:25;;;;;;;2.2;2;;;;;;;8.56;100;938.7113;;;;
2022/10/23 05:52:01;;;;;;;9;6.5;;;;;;;8.42;100;938.8382;;;;
2022/10/23 05:54:31;;;;;;;5.9;5.3;;;;;;;8.57;100;938.7489;;;;
2022/10/23 05:57:02;;;;;;;5.2;3.2;;;;;;;8.68;100;938.6739;;;;
2022/10/23 05:59:33;;;;;;;3.7;2.9;;;;;;;8.8;100;938.8109;;;;
2022/10/23 06:02:05;;;;;;;2.6;2.4;;;;;;;8.84;99.71875;938.8725;;;;
2022/10/23 06:04:34;;;;;;;2.4;2.2;;;;;;;8.9;99.44629;938.7503;;;;
2022/10/23 06:07:05;;;;;;;3.1;2.1;;;;;;;8.88;100;938.8214;;;;
2022/10/23 06:09:33;;;;;;;3.7;2.2;;;;;;;8.79;100;938.8617;;;;
2022/10/23 06:11:58;;;;;;;2.8;2.5;;;;;;;8.89;100;938.8937;;;;
2022/10/23 06:14:25;;;;;;;4.4;2.1;;;;;;;8.97;99.26953;938.8847;;;;
2022/10/23 06:16:50;;;;;;;2.4;2.2;;;;;;;9;100;938.9027;;;;
2022/10/23 06:19:20;;;;;;;3.3;2;;;;;;;8.87;100;938.9213;;;;
2022/10/23 06:21:45;;;;;;;2.8;1.9;;;;;;;9.03;100;938.9409;;;;
2022/10/23 06:24:11;;;;;;;2.1;1.5;;;;;;;9.27;99.08789;938.9274;;;;
2022/10/23 06:26:36;;;;;;;4.9;3.1;;;;;;;9.4;98.1377;938.981;;;;
2022/10/23 06:29:02;;;;;;;5.8;3.5;;;;;;;9.47;97.72168;938.9504;;;;
2022/10/23 06:31:28;;;;;;;5.8;2.9;;;;;;;9.36;97.41211;939.0321;;;;
2022/10/23 06:33:53;;;;;;;3.3;1.7;;;;;;;9.13;98.68164;938.9965;;;;
2022/10/23 06:37:28;;;;;;;1.7;1.6;;;;;;;9.35;98.48047;938.9802;;;;
2022/10/23 06:39:56;;;;;;;4.2;2.5;;;;;;;9.47;98.62109;938.9767;;;;
2022/10/23 06:42:21;;;;;;;4.9;2.3;;;;;;;9.41;98.26758;938.9501;;;;
2022/10/23 06:44:49;;;;;;;2.5;2.1;;;;;;;9.62;97.74316;939.088;;;;
2022/10/23 06:47:14;;;;;;;2.8;1.8;;;;;;;9.69;96.74512;939.1049;;;;
2022/10/23 06:49:41;;;;;;;3.2;2.3;;;;;;;9.4;97.95801;939.1821;;;;
2022/10/23 06:52:06;;;;;;;2.4;2.2;;;;;;;9.54;98.09082;939.0699;;;;
2022/10/23 06:54:34;;;;;;;1.9;1.8;;;;;;;9.67;97.40137;939.0999;;;;
2022/10/23 06:56:59;;;;;;;2.5;2;;;;;;;9.73;97.18848;939.0888;;;;
2022/10/23 06:59:26;;;;;;;3.6;2.7;;;;;;;9.87;96.60547;939.0831;;;;
2022/10/23 07:01:51;;;;;;;3.7;2.6;;;;;;;9.9;96.05078;939.0405;;;;
2022/10/23 07:04:18;;;;;;;3.5;2.7;;;;;;;10.08;95.45215;939.0756;;;;
2022/10/23 07:06:44;;;;;;;3.4;2.5;;;;;;;10.11;95.20898;939.0815;;;;
2022/10/23 07:09:10;;;;;;;2.1;1.9;;;;;;;10.23;95.28027;938.9897;;;;
2022/10/23 07:11:35;;;;;;;2.2;1.1;;;;;;;10.36;94.44336;939.0262;;;;
2022/10/23 07:14:03;;;;;;;2.3;1.3;;;;;;;10.65;93.61523;938.9567;;;;
2022/10/23 07:16:28;;;;;;;1.5;1.4;;;;;;;10.58;93.33691;938.8904;;;;
2022/10/23 07:18:58;;;;;;;1.5;1.3;;;;;;;10.48;94.2627;938.9395;;;;
2022/10/23 07:21:21;;;;;;;2.3;1.7;;;;;;;10.38;95.01758;938.9572;;;;
2022/10/23 07:23:49;;;;;;;3.7;2;;;;;;;10.4;95.36426;938.9694;;;;
2022/10/23 07:26:15;;;;;;;3.7;2.3;;;;;;;10.52;95.41309;938.967;;;;
2022/10/23 07:28:42;;;;;;;3.4;2;;;;;;;10.71;94.59961;938.9803;;;;
2022/10/23 07:31:09;;;;;;;3;2.6;;;;;;;10.93;94.76172;938.8975;;;;
2022/10/23 07:33:34;;;;;;;2.4;2.2;;;;;;;11.17;93.05176;938.8894;;;;
2022/10/23 07:36:03;;;;;;;2.8;2.3;;;;;;;11.38;91.91992;938.8691;;;;
2022/10/23 07:38:32;;;;;;;2.1;1.8;;;;;;;11.61;90.9834;938.9426;;;;
2022/10/23 07:40:58;;;;;;;2;1.6;;;;;;;11.74;89.77344;938.8608;;;;
2022/10/23 07:43:24;;;;;;;2.1;1.5;;;;;;;11.98;89.4707;938.8906;;;;
2022/10/23 07:45:49;;;;;;;2.4;1.9;;;;;;;12.01;88.6748;938.9266;;;;
2022/10/23 07:48:20;;;;;;;3.1;2.4;;;;;;;12.14;88.34473;938.8979;;;;
2022/10/23 07:50:45;;;;;;;2.7;2.1;;;;;;;12.35;87.60742;939.0069;;;;
2022/10/23 07:53:13;;;;;;;5.5;2.8;;;;;;;13.04;85.04785;939.0057;;;;
2022/10/23 07:55:38;;;;;;;5.2;2.7;;;;;;;13.71;81.48828;938.9724;;;;
2022/10/23 07:58:07;;;;;;;4.8;2.9;;;;;;;14.12;79.06738;938.9767;;;;
2022/10/23 08:00:32;;;;;;;2;1.7;;;;;;;14.22;78.72656;939.0792;;;;
2022/10/23 08:03:03;;;;;;;3.2;2.1;;;;;;;14.6;77.7002;939.1192;;;;
2022/10/23 08:05:28;;;;;;;1.5;1.3;;;;;;;14.79;76.69629;939.0953;;;;
2022/10/23 08:07:58;;;;;;;2.1;1.9;;;;;;;15.25;75.15039;938.9978;;;;
2022/10/23 08:10:31;;;;;;;2.3;1.7;;;;;;;15.7;72.7793;938.9211;;;;
2022/10/23 08:12:58;;;;;;;2.8;2.4;;;;;;;16.2;71.9834;938.9431;;;;
2022/10/23 08:15:23;;;;;;;1.6;1.5;;;;;;;16.4;71.25195;938.925;;;;
2022/10/23 08:17:48;;;;;;;1.7;1.6;;;;;;;16.44;70.75977;938.8669;;;;
2022/10/23 08:20:20;;;;;;;2.3;1.5;;;;;;;16.55;70.43164;938.7885;;;;
2022/10/23 08:22:50;;;;;;;3;1.7;;;;;;;16.95;69.64844;938.8452;;;;
2022/10/23 08:25:19;;;;;;;3.4;2.2;;;;;;;17.27;68.71289;938.7413;;;;
2022/10/23 08:27:44;;;;;;;4.7;2.8;;;;;;;17.52;67.84766;938.7891;;;;
2022/10/23 08:30:15;;;;;;;1.9;1.7;;;;;;;17.9;67.11816;938.7801;;;;
2022/10/23 08:32:44;;;;;;;1.5;1.2;;;;;;;18.27;64.81348;938.7006;;;;
2022/10/23 08:35:18;;;;;;;2.3;1.6;;;;;;;18.48;63.71777;938.6845;;;;
2022/10/23 08:37:49;;;;;;;2.3;1.5;;;;;;;18.39;64.25098;938.6989;;;;
2022/10/23 08:40:20;;;;;;;1.9;1.5;;;;;;;18.66;60.27734;938.6531;;;;
2022/10/23 08:42:45;;;;;;;1.6;1.3;;;;;;;18.53;59.60938;938.6108;;;;
2022/10/23 08:45:15;;;;;;;1;0.9;;;;;;;19.3;57.83594;938.4871;;;;
2022/10/23 08:47:47;;;;;;;2.3;1;;;;;;;19.5;58.22461;938.5011;;;;
2022/10/23 08:50:13;;;;;;;0.8;0.7;;;;;;;19.5;58.27148;938.4761;;;;
2022/10/23 08:52:40;;;;;;;1.4;0.9;;;;;;;18.98;58.58594;938.4852;;;;
2022/10/23 08:55:05;;;;;;;12.7;6.8;;;;;;;18.95;58.71191;938.48;;;;
2022/10/23 08:57:34;;;;;;;1.4;0.8;;;;;;;19.42;58.17871;938.4861;;;;
2022/10/23 08:59:58;;;;;;;0.5;0.4;;;;;;;19.52;55.16309;938.407;;;;
2022/10/23 09:02:24;;;;;;;0.8;0.8;;;;;;;19.58;55.06445;938.4355;;;;
2022/10/23 09:04:49;;;;;;;1.4;1;;;;;;;19.65;55.08594;938.4213;;;;
2022/10/23 09:07:14;;;;;;;1.1;0.4;;;;;;;20.06;51.99707;938.4274;;;;
2022/10/23 09:09:42;;;;;;;2;0.8;;;;;;;20.2;51.66309;938.4753;;;;
2022/10/23 09:12:07;;;;;;;0.9;0.5;;;;;;;20.16;52.30078;938.4529;;;;
2022/10/23 09:14:32;;;;;;;0.8;0.4;;;;;;;20.44;52.43945;938.3853;;;;
2022/10/23 09:16:57;;;;;;;2.4;0.6;;;;;;;20.67;51.68359;938.3653;;;;
2022/10/23 09:19:25;;;;;;;1;0.6;;;;;;;20.54;52.46289;938.2863;;;;
2022/10/23 09:21:51;;;;;;;1.8;1.4;;;;;;;20.35;52.60449;938.2715;;;;
2022/10/23 09:24:17;;;;;;;1.3;0.9;;;;;;;20.73;54.19141;938.149;;;;
2022/10/23 09:26:47;;;;;;;1.1;0.8;;;;;;;20.82;52.93945;938.1011;;;;
2022/10/23 09:29:09;;;;;;;0.7;0.7;;;;;;;20.85;54.35742;938.0753;;;;
2022/10/23 09:31:34;;;;;;;0.5;0.5;;;;;;;20.81;51.46582;938.069;;;;
2022/10/23 09:33:59;;;;;;;1.5;0.7;;;;;;;20.69;52.80762;938.0483;;;;
2022/10/23 09:36:28;;;;;;;0.7;0.5;;;;;;;20.73;51.81738;937.9639;;;;
2022/10/23 09:38:57;;;;;;;0.7;0.7;;;;;;;20.93;51.22266;937.9425;;;;
2022/10/23 09:41:23;;;;;;;0.8;0.5;;;;;;;20.89;50.29395;937.9714;;;;
2022/10/23 09:43:48;;;;;;;0.9;0.6;;;;;;;21.27;50.72363;937.9464;;;;
2022/10/23 09:46:13;;;;;;;0.7;0.6;;;;;;;21.43;50.58984;937.935;;;;
2022/10/23 09:48:43;;;;;;;0.4;0.4;;;;;;;21.31;47.67383;937.9307;;;;
2022/10/23 09:51:08;;;;;;;1.4;0.6;;;;;;;21.56;48.87207;937.9453;;;;
2022/10/23 09:53:34;;;;;;;0.6;0.5;;;;;;;21.79;47.95996;937.9647;;;;
2022/10/23 09:55:59;;;;;;;0.7;0.7;;;;;;;21.95;47.28613;937.9542;;;;
2022/10/23 09:58:24;;;;;;;0.6;0.5;;;;;;;21.7;47.50586;937.957;;;;
2022/10/23 10:00:55;;;;;;;1.1;0.8;;;;;;;21.3;48.46973;937.8798;;;;
2022/10/23 10:03:20;;;;;;;0.8;0.6;;;;;;;21.27;48.61621;937.8801;;;;
2022/10/23 10:05:50;;;;;;;0.8;0.6;;;;;;;21.21;47.55762;937.9;;;;
2022/10/23 10:08:17;;;;;;;1.2;0.7;;;;;;;21.36;49.75098;937.7928;;;;
2022/10/23 10:10:42;;;;;;;1.3;0.7;;;;;;;21.39;49.22852;937.7601;;;;
2022/10/23 10:13:08;;;;;;;0.9;0.7;;;;;;;21.51;49.25293;937.7347;;;;
2022/10/23 10:15:34;;;;;;;0.6;0.6;;;;;;;21.81;49.69727;937.7748;;;;
2022/10/23 10:17:59;;;;;;;0.4;0.4;;;;;;;21.93;47.22656;937.741;;;;
2022/10/23 10:20:24;;;;;;;0.9;0.8;;;;;;;21.98;49.63379;937.7408;;;;
2022/10/23 10:22:50;;;;;;;0.7;0.6;;;;;;;22.23;48.03125;937.6803;;;;
2022/10/23 10:25:15;;;;;;;0.5;0.3;;;;;;;22.65;44.14453;937.623;;;;
2022/10/23 10:27:40;;;;;;;1;0.4;;;;;;;22.9;42.85352;937.587;;;;
2022/10/23 10:30:11;;;;;;;0.8;0.5;;;;;;;22.73;43.34277;937.5595;;;;
2022/10/23 10:32:38;;;;;;;0.9;0.7;;;;;;;22.77;44.25098;937.5483;;;;
2022/10/23 10:35:03;;;;;;;0.5;0.5;;;;;;;22.91;45.06348;937.5555;;;;
2022/10/23 10:37:32;;;;;;;0.8;0.8;;;;;;;23.05;44.68945;937.4791;;;;
2022/10/23 10:40:01;;;;;;;0.5;0.5;;;;;;;23.13;45.89551;937.5019;;;;
2022/10/23 10:42:31;;;;;;;0.5;0.5;;;;;;;23.19;45.17383;937.5219;;;;
2022/10/23 10:44:57;;;;;;;0.6;0.4;;;;;;;23.53;43.38477;937.5015;;;;
2022/10/23 10:47:24;;;;;;;1.7;0.6;;;;;;;23.53;41.63281;937.377;;;;
2022/10/23 10:49:48;;;;;;;1.2;0.5;;;;;;;23.76;42.05469;937.4018;;;;
2022/10/23 10:52:13;;;;;;;0.4;0.4;;;;;;;23.82;43.0127;937.3603;;;;
2022/10/23 10:54:39;;;;;;;1;0.6;;;;;;;23.61;43.55859;937.3713;;;;
2022/10/23 10:57:07;;;;;;;1;0.6;;;;;;;23.27;42.72461;937.3552;;;;
2022/10/23 10:59:33;;;;;;;1.1;0.4;;;;;;;23.32;44.8457;937.2913;;;;
2022/10/23 11:01:59;;;;;;;0.9;0.4;;;;;;;23.14;43.33496;937.2399;;;;
2022/10/23 11:04:24;;;;;;;1.1;0.5;;;;;;;23.27;43.62988;937.2484;;;;
2022/10/23 11:06:54;;;;;;;0.7;0.6;;;;;;;23.03;40.8457;937.1404;;;;
2022/10/23 11:09:20;;;;;;;0.8;0.5;;;;;;;22.96;43.04883;937.051;;;;
2022/10/23 11:11:48;;;;;;;0.9;0.6;;;;;;;23.14;42.39551;937.0651;;;;
2022/10/23 11:14:13;;;;;;;0.8;0.5;;;;;;;23.4;42.72559;937.0212;;;;
2022/10/23 11:16:41;;;;;;;0.6;0.5;;;;;;;23.58;42.30664;936.9526;;;;
2022/10/23 11:19:07;;;;;;;0.5;0.5;;;;;;;23.76;41.53613;936.9151;;;;
2022/10/23 11:21:32;;;;;;;1;0.6;;;;;;;24.1;40.36719;936.8589;;;;
2022/10/23 11:23:58;;;;;;;0.3;0.3;;;;;;;24.25;40.52246;936.8596;;;;
2022/10/23 11:26:23;;;;;;;0.7;0.5;;;;;;;24.57;39.81934;936.8129;;;;
2022/10/23 11:28:50;;;;;;;0.3;0.3;;;;;;;25.51;38.56934;936.7353;;;;
2022/10/23 11:31:15;;;;;;;1.5;0.7;;;;;;;25.85;37.86621;936.7445;;;;
2022/10/23 11:33:40;;;;;;;0.7;0.4;;;;;;;26.39;36.57324;936.668;;;;
2022/10/23 11:37:23;;;;;;;1;0.5;;;;;;;26.56;35.03613;936.682;;;;
2022/10/23 11:39:42;;;;;;;1.1;0.5;;;;;;;27.39;35.71777;936.6142;;;;
2022/10/23 11:42:08;;;;;;;0.4;0.4;;;;;;;28.01;34.41309;936.6075;;;;
2022/10/23 11:44:33;;;;;;;0.9;0.5;;;;;;;29;31.77441;936.5475;;;;
2022/10/23 11:47:01;;;;;;;0.5;0.5;;;;;;;29.62;31.66309;936.5826;;;;
2022/10/23 11:49:28;;;;;;;0.6;0.4;;;;;;;29.04;29.94434;936.508;;;;
2022/10/23 11:51:53;;;;;;;0.9;0.5;;;;;;;28.95;31.92578;936.4825;;;;
2022/10/23 11:54:23;;;;;;;1.1;0.6;;;;;;;29.01;31.3584;936.4303;;;;
2022/10/23 11:56:46;;;;;;;0.9;0.6;;;;;;;29.02;30.4668;936.3064;;;;
2022/10/23 11:59:14;;;;;;;0.5;0.5;;;;;;;29.26;31.03027;936.3325;;;;
2022/10/23 12:01:39;;;;;;;1;0.5;;;;;;;29.24;31.23145;936.3536;;;;
2022/10/23 12:04:06;;;;;;;1;0.6;;;;;;;27.75;32.56543;936.3089;;;;
2022/10/23 12:06:31;;;;;;;1.5;0.6;;;;;;;27.58;33.35938;936.2936;;;;
2022/10/23 12:08:56;;;;;;;0.6;0.4;;;;;;;27.6;33.91895;936.2992;;;;
2022/10/23 12:11:21;;;;;;;1.3;0.8;;;;;;;27.84;35.54004;936.3135;;;;
2022/10/23 12:13:46;;;;;;;0.5;0.5;;;;;;;27.38;34.76758;936.2327;;;;
2022/10/23 12:16:15;;;;;;;0.9;0.7;;;;;;;27.19;34.46973;936.3245;;;;
2022/10/23 12:18:42;;;;;;;1.4;0.9;;;;;;;27.25;34.39063;936.3024;;;;
2022/10/23 12:21:07;;;;;;;1.1;0.7;;;;;;;28.31;32.85547;936.3075;;;;
2022/10/23 12:23:32;;;;;;;1.4;0.7;;;;;;;29.42;30.00488;936.2653;;;;
2022/10/23 12:25:59;;;;;;;3.3;0.7;;;;;;;30.7;28.69141;936.1903;;;;
2022/10/23 12:28:24;;;;;;;1;0.5;;;;;;;30.3;29.94336;936.1022;;;;
2022/10/23 12:30:49;;;;;;;2;0.7;;;;;;;29.32;30.40332;936.1785;;;;
2022/10/23 12:33:19;;;;;;;1.4;0.6;;;;;;;29.27;29.76758;936.2131;;;;
2022/10/23 12:35:46;;;;;;;2.6;0.7;;;;;;;30.59;28.95898;936.1563;;;;
2022/10/23 12:38:12;;;;;;;0.9;0.5;;;;;;;31.1;28.63281;936.0978;;;;
2022/10/23 12:40:37;;;;;;;1.8;0.9;;;;;;;31;27.96875;935.9779;;;;
2022/10/23 12:43:02;;;;;;;1.1;0.7;;;;;;;30.23;28.51953;936.0227;;;;
2022/10/23 12:45:31;;;;;;;2.1;0.7;;;;;;;30.66;29.14258;936.025;;;;
2022/10/23 12:47:56;;;;;;;1.8;0.8;;;;;;;30.09;29.97754;936.0058;;;;
2022/10/23 12:50:23;;;;;;;3;1.1;;;;;;;29.9;30.04883;935.9698;;;;
2022/10/23 12:52:51;;;;;;;2.4;1;;;;;;;30.01;29.99609;935.9558;;;;
2022/10/23 12:55:16;;;;;;;1.5;0.7;;;;;;;30.31;30.19531;935.9476;;;;
2022/10/23 12:57:48;;;;;;;2.6;1.1;;;;;;;30.21;28.92383;935.965;;;;
2022/10/23 13:00:13;;;;;;;1.4;0.8;;;;;;;29.45;29.31543;935.9813;;;;
2022/10/23 13:02:41;;;;;;;2.4;0.9;;;;;;;28.79;31.24805;935.9816;;;;
2022/10/23 13:05:07;;;;;;;1.1;0.9;;;;;;;28.22;31.49316;935.9763;;;;
2022/10/23 13:07:39;;;;;;;2.2;0.8;;;;;;;28.41;32.42285;935.8997;;;;
2022/10/23 13:10:11;;;;;;;0.8;0.8;;;;;;;28.25;32.05371;935.8402;;;;
2022/10/23 13:12:37;;;;;;;1.9;0.6;;;;;;;29.31;32.34473;935.9236;;;;
2022/10/23 13:15:02;;;;;;;1.5;0.9;;;;;;;30.83;29.17871;935.889;;;;
2022/10/23 13:17:28;;;;;;;1.5;0.8;;;;;;;30.76;28.12207;935.8367;;;;
2022/10/23 13:19:55;;;;;;;2;0.7;;;;;;;31.34;26.94922;935.877;;;;
2022/10/23 13:22:27;;;;;;;3;0.9;;;;;;;31.19;27.80176;935.8062;;;;
2022/10/23 13:24:57;;;;;;;2.4;0.7;;;;;;;31.12;27.41406;935.7639;;;;
2022/10/23 13:27:22;;;;;;;0.8;0.7;;;;;;;30.42;28.2207;935.7358;;;;
2022/10/23 13:29:51;;;;;;;0.8;0.6;;;;;;;28.91;31.89941;935.688;;;;
2022/10/23 13:32:16;;;;;;;1.5;0.8;;;;;;;27.23;35.5752;935.7073;;;;
2022/10/23 13:34:41;;;;;;;0.9;0.6;;;;;;;26.15;36.12891;935.4949;;;;
2022/10/23 13:37:09;;;;;;;1.5;0.8;;;;;;;25.93;37.09277;935.5784;;;;
2022/10/23 13:39:34;;;;;;;3.4;0.7;;;;;;;25.88;36.49609;935.5676;;;;
2022/10/23 13:42:01;;;;;;;1.6;0.8;;;;;;;25.91;36.08496;935.6199;;;;
2022/10/23 13:44:26;;;;;;;1.8;0.8;;;;;;;25.87;35.2666;935.5817;;;;
2022/10/23 13:46:53;;;;;;;1.5;0.9;;;;;;;25.75;36.37988;935.6;;;;
2022/10/23 13:49:18;;;;;;;2;0.8;;;;;;;25.66;36.80957;935.5952;;;;
2022/10/23 13:51:46;;;;;;;3.6;0.9;;;;;;;25.68;37.36621;935.6025;;;;
2022/10/23 13:54:10;;;;;;;2.1;1.1;;;;;;;25.6;37.79688;935.6127;;;;
2022/10/23 13:56:35;;;;;;;2.6;1;;;;;;;25.66;38.40527;935.5214;;;;
2022/10/23 13:59:02;;;;;;;2;0.9;;;;;;;25.72;42.08594;935.539;;;;
2022/10/23 14:01:34;;;;;;;2.3;1.3;;;;;;;25.59;38.41016;935.5953;;;;
2022/10/23 14:03:59;;;;;;;2.1;1;;;;;;;25.94;37.1875;935.6033;;;;
2022/10/23 14:06:26;;;;;;;2.9;1;;;;;;;26.36;38.38184;935.5792;;;;
2022/10/23 14:08:51;;;;;;;3;0.9;;;;;;;26.01;36.54199;935.5941;;;;
2022/10/23 14:11:22;;;;;;;4.7;1.6;;;;;;;24.96;38.58105;935.6607;;;;
2022/10/23 14:13:52;;;;;;;3.5;1.2;;;;;;;25.2;40.47852;935.7342;;;;
2022/10/23 14:16:18;;;;;;;3.6;1.1;;;;;;;25.12;41.42676;935.7364;;;;
2022/10/23 14:18:44;;;;;;;2.4;1.1;;;;;;;24.83;41.11719;935.7406;;;;
2022/10/23 14:21:09;;;;;;;4;1.7;;;;;;;24.77;42.96289;935.7778;;;;
2022/10/23 14:23:37;;;;;;;4.8;1.2;;;;;;;24.46;42.99316;935.688;;;;
2022/10/23 14:26:05;;;;;;;1.5;1;;;;;;;24.4;43.23438;935.7363;;;;
2022/10/23 14:28:30;;;;;;;3.1;1;;;;;;;24.2;43.40332;935.7834;;;;
2022/10/23 14:30:55;;;;;;;2.8;1;;;;;;;24.29;43.27051;935.7391;;;;
2022/10/23 14:33:20;;;;;;;2.1;1.3;;;;;;;24.38;44.43457;935.7307;;;;
2022/10/23 14:35:49;;;;;;;3;1.2;;;;;;;23.85;44.8291;935.7946;;;;
2022/10/23 14:38:17;;;;;;;2.8;1.1;;;;;;;23.63;40.75977;935.7206;;;;
2022/10/23 14:40:47;;;;;;;1.8;1.1;;;;;;;23.75;46.25391;935.7418;;;;
2022/10/23 14:43:20;;;;;;;2.2;1.1;;;;;;;23.89;45.85645;935.7212;;;;
2022/10/23 14:45:51;;;;;;;4.9;1.4;;;;;;;23.87;46.19629;935.7611;;;;
2022/10/23 14:48:22;;;;;;;5.3;1.6;;;;;;;23.88;47.25586;935.795;;;;
2022/10/23 14:50:47;;;;;;;5.7;1.3;;;;;;;23.88;46.91504;935.7981;;;;
2022/10/23 14:53:19;;;;;;;3.4;1.4;;;;;;;23.78;48.94043;935.8503;;;;
2022/10/23 14:55:50;;;;;;;3.3;1.3;;;;;;;23.54;50.96094;935.9255;;;;
2022/10/23 14:58:22;;;;;;;8;1.4;;;;;;;23.34;51.125;935.796;;;;
2022/10/23 15:00:46;;;;;;;4;1.6;;;;;;;23.12;51.85156;935.7102;;;;
2022/10/23 15:03:11;;;;;;;3.6;1.7;;;;;;;23.03;52.65332;935.7098;;;;
2022/10/23 15:05:36;;;;;;;5.6;1.7;;;;;;;22.83;51.77148;935.6833;;;;